sensor_id;sensor_type;location;lat;lon;timestamp;pressure;altitude;pressure_sealevel;temperature;humidity
67818;BME280;54614;47.576;7.524;2023-11-19T00:00:05;98727.19;;;23.34;40.79
67818;BME280;54614;47.576;7.524;2023-11-19T00:02:37;98723.06;;;23.38;40.36
67818;BME280;54614;47.576;7.524;2023-11-19T00:05:03;98725.75;;;23.38;40.28
67818;BME280;54614;47.576;7.524;2023-11-19T00:07:29;98717.06;;;23.36;40.84
67818;BME280;54614;47.576;7.524;2023-11-19T00:09:55;98710.84;;;23.29;40.59
67818;BME280;54614;47.576;7.524;2023-11-19T00:12:20;98711.47;;;23.31;40.90
67818;BME280;54614;47.576;7.524;2023-11-19T00:14:46;98707.13;;;23.30;40.65
67818;BME280;54614;47.576;7.524;2023-11-19T00:17:12;98697.84;;;23.32;40.61
67818;BME280;54614;47.576;7.524;2023-11-19T00:19:38;98696.81;;;23.33;40.52
67818;BME280;54614;47.576;7.524;2023-11-19T00:22:03;98691.25;;;23.35;40.68
67818;BME280;54614;47.576;7.524;2023-11-19T00:24:30;98686.91;;;23.34;40.86
67818;BME280;54614;47.576;7.524;2023-11-19T00:26:56;98677.00;;;23.28;40.75
67818;BME280;54614;47.576;7.524;2023-11-19T00:29:22;98678.22;;;23.25;40.96
67818;BME280;54614;47.576;7.524;2023-11-19T00:31:48;98677.63;;;23.30;40.74
67818;BME280;54614;47.576;7.524;2023-11-19T00:34:13;98677.81;;;23.28;41.14
67818;BME280;54614;47.576;7.524;2023-11-19T00:36:39;98677.00;;;23.28;40.78
67818;BME280;54614;47.576;7.524;2023-11-19T00:39:05;98686.28;;;23.25;40.63
67818;BME280;54614;47.576;7.524;2023-11-19T00:41:31;98688.75;;;23.27;40.91
67818;BME280;54614;47.576;7.524;2023-11-19T00:43:57;98690.81;;;23.25;41.05
67818;BME280;54614;47.576;7.524;2023-11-19T00:46:23;98672.03;;;23.25;40.70
67818;BME280;54614;47.576;7.524;2023-11-19T00:48:48;98669.34;;;23.25;40.69
67818;BME280;54614;47.576;7.524;2023-11-19T00:51:14;98666.03;;;23.23;41.05
67818;BME280;54614;47.576;7.524;2023-11-19T00:53:40;98682.75;;;23.25;40.90
67818;BME280;54614;47.576;7.524;2023-11-19T00:56:06;98688.13;;;23.25;40.86
67818;BME280;54614;47.576;7.524;2023-11-19T00:58:32;98687.28;;;23.24;40.95
67818;BME280;54614;47.576;7.524;2023-11-19T01:00:58;98688.72;;;23.20;40.90
67818;BME280;54614;47.576;7.524;2023-11-19T01:03:24;98678.38;;;23.17;41.12
67818;BME280;54614;47.576;7.524;2023-11-19T01:05:49;98668.47;;;23.18;40.87
67818;BME280;54614;47.576;7.524;2023-11-19T01:08:17;98655.28;;;23.16;41.19
67818;BME280;54614;47.576;7.524;2023-11-19T01:10:43;98644.34;;;23.18;40.76
67818;BME280;54614;47.576;7.524;2023-11-19T01:13:09;98635.25;;;23.19;40.81
67818;BME280;54614;47.576;7.524;2023-11-19T01:15:35;98616.66;;;23.17;40.92
67818;BME280;54614;47.576;7.524;2023-11-19T01:18:01;98617.28;;;23.12;40.90
67818;BME280;54614;47.576;7.524;2023-11-19T01:20:30;98619.16;;;23.19;40.67
67818;BME280;54614;47.576;7.524;2023-11-19T01:22:56;98617.31;;;23.19;40.74
67818;BME280;54614;47.576;7.524;2023-11-19T01:25:22;98617.09;;;23.21;40.76
67818;BME280;54614;47.576;7.524;2023-11-19T01:27:47;98609.44;;;23.18;40.94
67818;BME280;54614;47.576;7.524;2023-11-19T01:30:13;98608.63;;;23.17;40.74
67818;BME280;54614;47.576;7.524;2023-11-19T01:32:40;98605.75;;;23.19;40.96
67818;BME280;54614;47.576;7.524;2023-11-19T01:35:06;98624.31;;;23.20;40.93
67818;BME280;54614;47.576;7.524;2023-11-19T01:37:34;98619.97;;;23.12;40.84
67818;BME280;54614;47.576;7.524;2023-11-19T01:40:01;98626.13;;;23.06;40.84
67818;BME280;54614;47.576;7.524;2023-11-19T01:42:28;98612.53;;;23.14;41.06
67818;BME280;54614;47.576;7.524;2023-11-19T01:45:00;98622.25;;;23.15;41.02
67818;BME280;54614;47.576;7.524;2023-11-19T01:47:30;98624.31;;;23.13;40.54
67818;BME280;54614;47.576;7.524;2023-11-19T01:49:57;98635.03;;;23.13;40.74
67818;BME280;54614;47.576;7.524;2023-11-19T01:52:24;98640.41;;;23.13;40.98
67818;BME280;54614;47.576;7.524;2023-11-19T01:54:52;98637.09;;;23.11;40.64
67818;BME280;54614;47.576;7.524;2023-11-19T01:57:21;98639.97;;;23.10;41.03
67818;BME280;54614;47.576;7.524;2023-11-19T01:59:50;98649.47;;;23.12;40.85
67818;BME280;54614;47.576;7.524;2023-11-19T02:02:17;98646.16;;;23.10;41.30
67818;BME280;54614;47.576;7.524;2023-11-19T02:04:49;98655.03;;;23.11;41.08
67818;BME280;54614;47.576;7.524;2023-11-19T02:07:15;98646.78;;;23.06;40.88
67818;BME280;54614;47.576;7.524;2023-11-19T02:09:44;98644.31;;;23.11;41.00
67818;BME280;54614;47.576;7.524;2023-11-19T02:12:10;98640.16;;;23.08;40.71
67818;BME280;54614;47.576;7.524;2023-11-19T02:14:39;98632.75;;;23.10;40.63
67818;BME280;54614;47.576;7.524;2023-11-19T02:17:05;98640.16;;;23.08;40.79
67818;BME280;54614;47.576;7.524;2023-11-19T02:19:31;98635.44;;;23.10;40.69
67818;BME280;54614;47.576;7.524;2023-11-19T02:21:56;98626.97;;;23.07;40.90
67818;BME280;54614;47.576;7.524;2023-11-19T02:24:25;98633.34;;;23.06;41.25
67818;BME280;54614;47.576;7.524;2023-11-19T02:27:02;98630.03;;;23.04;41.10
67818;BME280;54614;47.576;7.524;2023-11-19T02:29:31;98623.44;;;23.06;40.93
67818;BME280;54614;47.576;7.524;2023-11-19T02:31:57;98627.16;;;23.05;40.95
67818;BME280;54614;47.576;7.524;2023-11-19T02:34:23;98627.16;;;23.05;40.78
67818;BME280;54614;47.576;7.524;2023-11-19T02:36:49;98632.31;;;23.07;40.84
67818;BME280;54614;47.576;7.524;2023-11-19T02:39:15;98628.19;;;23.04;40.99
67818;BME280;54614;47.576;7.524;2023-11-19T02:41:47;98619.94;;;23.06;40.92
67818;BME280;54614;47.576;7.524;2023-11-19T02:44:16;98619.94;;;23.06;40.67
67818;BME280;54614;47.576;7.524;2023-11-19T02:46:42;98616.63;;;23.04;40.72
67818;BME280;54614;47.576;7.524;2023-11-19T02:49:08;98607.75;;;23.03;40.65
67818;BME280;54614;47.576;7.524;2023-11-19T02:51:34;98621.16;;;23.03;40.99
67818;BME280;54614;47.576;7.524;2023-11-19T02:54:01;98616.81;;;23.02;40.84
67818;BME280;54614;47.576;7.524;2023-11-19T02:56:29;98623.22;;;23.01;41.10
67818;BME280;54614;47.576;7.524;2023-11-19T02:59:00;98621.16;;;23.03;40.94
67818;BME280;54614;47.576;7.524;2023-11-19T03:01:33;98618.88;;;23.00;40.76
67818;BME280;54614;47.576;7.524;2023-11-19T03:04:01;98614.34;;;23.01;40.84
67818;BME280;54614;47.576;7.524;2023-11-19T03:06:27;98612.50;;;23.01;41.06
67818;BME280;54614;47.576;7.524;2023-11-19T03:08:55;98602.16;;;22.98;41.17
67818;BME280;54614;47.576;7.524;2023-11-19T03:11:21;98605.47;;;23.00;40.94
67818;BME280;54614;47.576;7.524;2023-11-19T03:13:47;98602.38;;;22.97;41.19
67818;BME280;54614;47.576;7.524;2023-11-19T03:16:13;98605.03;;;22.97;41.07
67818;BME280;54614;47.576;7.524;2023-11-19T03:18:39;98601.34;;;22.98;41.15
67818;BME280;54614;47.576;7.524;2023-11-19T03:21:08;98616.59;;;22.97;41.07
67818;BME280;54614;47.576;7.524;2023-11-19T03:23:35;98619.50;;;22.96;41.08
67818;BME280;54614;47.576;7.524;2023-11-19T03:26:01;98621.75;;;22.92;41.21
67818;BME280;54614;47.576;7.524;2023-11-19T03:28:31;98612.88;;;22.92;40.96
67818;BME280;54614;47.576;7.524;2023-11-19T03:30:57;98605.66;;;22.92;40.99
67818;BME280;54614;47.576;7.524;2023-11-19T03:33:23;98613.50;;;22.94;41.04
67818;BME280;54614;47.576;7.524;2023-11-19T03:35:48;98613.06;;;22.90;41.06
67818;BME280;54614;47.576;7.524;2023-11-19T03:38:14;98615.34;;;22.93;41.30
67818;BME280;54614;47.576;7.524;2023-11-19T03:40:40;98618.84;;;22.94;40.99
67818;BME280;54614;47.576;7.524;2023-11-19T03:43:06;98624.41;;;22.92;40.95
67818;BME280;54614;47.576;7.524;2023-11-19T03:45:32;98623.78;;;22.90;40.93
67818;BME280;54614;47.576;7.524;2023-11-19T03:47:58;98629.78;;;22.92;40.83
67818;BME280;54614;47.576;7.524;2023-11-19T03:50:23;98628.75;;;22.93;41.05
67818;BME280;54614;47.576;7.524;2023-11-19T03:52:49;98635.34;;;22.91;41.23
67818;BME280;54614;47.576;7.524;2023-11-19T03:55:15;98644.84;;;22.93;41.20
67818;BME280;54614;47.576;7.524;2023-11-19T03:57:41;98634.31;;;22.92;41.03
67818;BME280;54614;47.576;7.524;2023-11-19T04:00:07;98640.72;;;22.91;41.08
67818;BME280;54614;47.576;7.524;2023-11-19T04:02:39;98647.09;;;22.90;41.08
67818;BME280;54614;47.576;7.524;2023-11-19T04:05:06;98639.25;;;22.88;41.29
67818;BME280;54614;47.576;7.524;2023-11-19T04:07:32;98648.34;;;22.87;41.18
67818;BME280;54614;47.576;7.524;2023-11-19T04:09:59;98640.09;;;22.89;41.12
67818;BME280;54614;47.576;7.524;2023-11-19T04:12:25;98653.50;;;22.89;41.26
67818;BME280;54614;47.576;7.524;2023-11-19T04:14:51;98642.13;;;22.87;41.14
67818;BME280;54614;47.576;7.524;2023-11-19T04:17:17;98647.69;;;22.85;41.29
67818;BME280;54614;47.576;7.524;2023-11-19T04:19:44;98654.53;;;22.88;41.26
67818;BME280;54614;47.576;7.524;2023-11-19T04:22:10;98651.00;;;22.87;40.99
67818;BME280;54614;47.576;7.524;2023-11-19T04:24:36;98646.69;;;22.86;41.19
67818;BME280;54614;47.576;7.524;2023-11-19T04:27:02;98646.25;;;22.82;41.24
67818;BME280;54614;47.576;7.524;2023-11-19T04:29:30;98639.22;;;22.81;41.01
67818;BME280;54614;47.576;7.524;2023-11-19T04:31:56;98647.91;;;22.83;41.45
67818;BME280;54614;47.576;7.524;2023-11-19T04:34:22;98626.44;;;22.83;41.33
67818;BME280;54614;47.576;7.524;2023-11-19T04:36:48;98620.25;;;22.83;41.15
67818;BME280;54614;47.576;7.524;2023-11-19T04:39:14;98621.09;;;22.83;41.37
67818;BME280;54614;47.576;7.524;2023-11-19T04:41:50;98625.00;;;22.81;41.48
67818;BME280;54614;47.576;7.524;2023-11-19T04:44:20;98617.97;;;22.80;41.14
67818;BME280;54614;47.576;7.524;2023-11-19T04:46:46;98614.88;;;22.83;41.29
67818;BME280;54614;47.576;7.524;2023-11-19T04:49:13;98621.09;;;22.83;41.30
67818;BME280;54614;47.576;7.524;2023-11-19T04:51:44;98629.53;;;22.80;41.38
67818;BME280;54614;47.576;7.524;2023-11-19T04:54:12;98626.84;;;22.80;41.27
67818;BME280;54614;47.576;7.524;2023-11-19T04:56:38;98636.75;;;22.80;41.44
67818;BME280;54614;47.576;7.524;2023-11-19T04:59:04;98633.03;;;22.81;41.46
67818;BME280;54614;47.576;7.524;2023-11-19T05:01:32;98637.09;;;22.77;41.50
67818;BME280;54614;47.576;7.524;2023-11-19T05:03:57;98626.38;;;22.77;41.51
67818;BME280;54614;47.576;7.524;2023-11-19T05:06:30;98640.63;;;22.77;41.15
67818;BME280;54614;47.576;7.524;2023-11-19T05:09:00;98643.31;;;22.77;41.30
67818;BME280;54614;47.576;7.524;2023-11-19T05:11:33;98656.72;;;22.77;41.20
67818;BME280;54614;47.576;7.524;2023-11-19T05:13:59;98663.09;;;22.76;41.46
67818;BME280;54614;47.576;7.524;2023-11-19T05:16:25;98654.03;;;22.77;41.41
67818;BME280;54614;47.576;7.524;2023-11-19T05:18:51;98652.56;;;22.75;41.44
67818;BME280;54614;47.576;7.524;2023-11-19T05:21:17;98646.56;;;22.73;41.48
67818;BME280;54614;47.576;7.524;2023-11-19T05:23:43;98650.72;;;22.75;41.55
67818;BME280;54614;47.576;7.524;2023-11-19T05:26:09;98650.72;;;22.75;41.52
67818;BME280;54614;47.576;7.524;2023-11-19T05:28:38;98638.97;;;22.76;41.27
67818;BME280;54614;47.576;7.524;2023-11-19T05:31:05;98640.00;;;22.75;41.29
67818;BME280;54614;47.576;7.524;2023-11-19T05:33:31;98640.19;;;22.74;41.55
67818;BME280;54614;47.576;7.524;2023-11-19T05:35:57;98640.38;;;22.72;41.50
67818;BME280;54614;47.576;7.524;2023-11-19T05:38:23;98640.38;;;22.72;41.41
67818;BME280;54614;47.576;7.524;2023-11-19T05:40:48;98647.59;;;22.72;41.63
67818;BME280;54614;47.576;7.524;2023-11-19T05:43:15;98651.31;;;22.71;41.60
67818;BME280;54614;47.576;7.524;2023-11-19T05:45:42;98644.09;;;22.71;41.28
67818;BME280;54614;47.576;7.524;2023-11-19T05:48:08;98637.91;;;22.71;41.39
67818;BME280;54614;47.576;7.524;2023-11-19T05:50:35;98638.94;;;22.70;41.61
67818;BME280;54614;47.576;7.524;2023-11-19T05:53:00;98638.94;;;22.70;41.74
67818;BME280;54614;47.576;7.524;2023-11-19T05:55:27;98648.63;;;22.71;41.44
67818;BME280;54614;47.576;7.524;2023-11-19T05:57:53;98649.47;;;22.71;41.65
67818;BME280;54614;47.576;7.524;2023-11-19T06:00:19;98648.81;;;22.69;41.64
67818;BME280;54614;47.576;7.524;2023-11-19T06:02:46;98646.16;;;22.69;41.53
67818;BME280;54614;47.576;7.524;2023-11-19T06:05:12;98654.00;;;22.71;41.68
67818;BME280;54614;47.576;7.524;2023-11-19T06:07:37;98648.19;;;22.67;41.83
67818;BME280;54614;47.576;7.524;2023-11-19T06:10:05;98649.03;;;22.68;41.76
67818;BME280;54614;47.576;7.524;2023-11-19T06:12:33;98647.16;;;22.68;41.46
67818;BME280;54614;47.576;7.524;2023-11-19T06:15:05;98650.88;;;22.67;41.76
67818;BME280;54614;47.576;7.524;2023-11-19T06:17:31;98655.00;;;22.70;41.68
67818;BME280;54614;47.576;7.524;2023-11-19T06:19:57;98645.50;;;22.67;41.82
67818;BME280;54614;47.576;7.524;2023-11-19T06:22:23;98649.22;;;22.66;41.81
67818;BME280;54614;47.576;7.524;2023-11-19T06:24:48;98652.94;;;22.65;41.83
67818;BME280;54614;47.576;7.524;2023-11-19T06:27:14;98645.09;;;22.64;41.91
67818;BME280;54614;47.576;7.524;2023-11-19T06:29:40;98650.06;;;22.67;41.44
67818;BME280;54614;47.576;7.524;2023-11-19T06:32:06;98654.59;;;22.66;41.84
67818;BME280;54614;47.576;7.524;2023-11-19T06:34:34;98655.41;;;22.67;41.63
67818;BME280;54614;47.576;7.524;2023-11-19T06:37:00;98649.41;;;22.65;41.51
67818;BME280;54614;47.576;7.524;2023-11-19T06:39:25;98657.47;;;22.65;41.82
67818;BME280;54614;47.576;7.524;2023-11-19T06:41:52;98660.97;;;22.65;41.77
67818;BME280;54614;47.576;7.524;2023-11-19T06:44:18;98658.50;;;22.64;42.01
67818;BME280;54614;47.576;7.524;2023-11-19T06:46:43;98662.63;;;22.66;41.82
67818;BME280;54614;47.576;7.524;2023-11-19T06:49:09;98672.91;;;22.63;41.53
67818;BME280;54614;47.576;7.524;2023-11-19T06:51:35;98657.47;;;22.65;41.86
67818;BME280;54614;47.576;7.524;2023-11-19T06:54:01;98654.97;;;22.63;41.66
67818;BME280;54614;47.576;7.524;2023-11-19T06:56:27;98656.19;;;22.61;41.94
67818;BME280;54614;47.576;7.524;2023-11-19T06:58:53;98652.69;;;22.60;41.60
67818;BME280;54614;47.576;7.524;2023-11-19T07:01:19;98657.03;;;22.61;41.59
67818;BME280;54614;47.576;7.524;2023-11-19T07:03:46;98653.50;;;22.61;42.07
67818;BME280;54614;47.576;7.524;2023-11-19T07:06:12;98651.88;;;22.60;41.92
67818;BME280;54614;47.576;7.524;2023-11-19T07:08:40;98653.91;;;22.58;41.78
67818;BME280;54614;47.576;7.524;2023-11-19T07:11:06;98668.53;;;22.55;41.96
67818;BME280;54614;47.576;7.524;2023-11-19T07:13:32;98673.25;;;22.53;42.20
67818;BME280;54614;47.576;7.524;2023-11-19T07:15:58;98668.09;;;22.51;42.21
67818;BME280;54614;47.576;7.524;2023-11-19T07:18:24;98672.44;;;22.52;42.31
67818;BME280;54614;47.576;7.524;2023-11-19T07:20:50;98673.25;;;22.53;42.18
67818;BME280;54614;47.576;7.524;2023-11-19T07:23:16;98660.00;;;22.45;42.43
67818;BME280;54614;47.576;7.524;2023-11-19T07:25:44;98662.31;;;22.48;42.73
67818;BME280;54614;47.576;7.524;2023-11-19T07:28:13;98676.13;;;22.51;42.56
67818;BME280;54614;47.576;7.524;2023-11-19T07:30:39;98685.84;;;22.52;42.74
67818;BME280;54614;47.576;7.524;2023-11-19T07:33:05;98677.22;;;22.57;42.85
67818;BME280;54614;47.576;7.524;2023-11-19T07:35:32;98689.41;;;22.60;43.14
67818;BME280;54614;47.576;7.524;2023-11-19T07:37:58;98692.91;;;22.60;43.42
67818;BME280;54614;47.576;7.524;2023-11-19T07:40:24;98696.41;;;22.61;43.49
67818;BME280;54614;47.576;7.524;2023-11-19T07:42:50;98704.06;;;22.64;43.66
67818;BME280;54614;47.576;7.524;2023-11-19T07:45:17;98699.97;;;22.68;43.81
67818;BME280;54614;47.576;7.524;2023-11-19T07:47:43;98694.41;;;22.69;43.71
67818;BME280;54614;47.576;7.524;2023-11-19T07:50:12;98696.69;;;22.72;43.60
67818;BME280;54614;47.576;7.524;2023-11-19T07:52:39;98697.72;;;22.71;43.91
67818;BME280;54614;47.576;7.524;2023-11-19T07:55:05;98707.41;;;22.72;43.94
67818;BME280;54614;47.576;7.524;2023-11-19T07:57:31;98709.06;;;22.73;44.21
67818;BME280;54614;47.576;7.524;2023-11-19T07:59:57;98709.72;;;22.75;44.02
67818;BME280;54614;47.576;7.524;2023-11-19T08:02:23;98713.03;;;22.77;43.75
67818;BME280;54614;47.576;7.524;2023-11-19T08:04:50;98710.41;;;22.84;44.21
67818;BME280;54614;47.576;7.524;2023-11-19T08:07:18;98702.38;;;22.84;43.82
67818;BME280;54614;47.576;7.524;2023-11-19T08:09:45;98712.28;;;22.83;44.10
67818;BME280;54614;47.576;7.524;2023-11-19T08:12:10;98699.09;;;22.89;44.23
67818;BME280;54614;47.576;7.524;2023-11-19T08:14:36;98710.59;;;22.82;44.10
67818;BME280;54614;47.576;7.524;2023-11-19T08:17:05;98710.03;;;22.87;44.12
67818;BME280;54614;47.576;7.524;2023-11-19T08:19:31;98704.13;;;23.05;44.60
67818;BME280;54614;47.576;7.524;2023-11-19T08:21:56;98697.72;;;22.99;44.57
67818;BME280;54614;47.576;7.524;2023-11-19T08:24:22;98707.59;;;22.99;44.55
67818;BME280;54614;47.576;7.524;2023-11-19T08:26:48;98703.31;;;23.04;44.66
67818;BME280;54614;47.576;7.524;2023-11-19T08:29:14;98696.72;;;23.07;44.70
67818;BME280;54614;47.576;7.524;2023-11-19T08:31:40;98694.66;;;23.09;44.35
67818;BME280;54614;47.576;7.524;2023-11-19T08:34:06;98699.41;;;23.07;44.53
67818;BME280;54614;47.576;7.524;2023-11-19T08:36:35;98707.44;;;23.07;44.45
67818;BME280;54614;47.576;7.524;2023-11-19T08:39:01;98706.41;;;23.08;44.51
67818;BME280;54614;47.576;7.524;2023-11-19T08:41:27;98704.38;;;23.10;44.57
67818;BME280;54614;47.576;7.524;2023-11-19T08:43:53;98703.53;;;23.09;45.02
67818;BME280;54614;47.576;7.524;2023-11-19T08:46:18;98716.09;;;23.02;45.39
67818;BME280;54614;47.576;7.524;2023-11-19T08:48:45;98713.25;;;23.10;44.84
67818;BME280;54614;47.576;7.524;2023-11-19T08:51:12;98711.97;;;23.06;44.84
67818;BME280;54614;47.576;7.524;2023-11-19T08:53:38;98709.69;;;23.03;45.07
67818;BME280;54614;47.576;7.524;2023-11-19T08:56:04;98715.72;;;23.12;44.94
67818;BME280;54614;47.576;7.524;2023-11-19T08:58:30;98717.75;;;23.03;45.05
67818;BME280;54614;47.576;7.524;2023-11-19T09:00:56;98709.31;;;23.06;44.99
67818;BME280;54614;47.576;7.524;2023-11-19T09:03:23;98705.38;;;23.09;45.23
67818;BME280;54614;47.576;7.524;2023-11-19T09:05:49;98713.25;;;23.10;45.20
67818;BME280;54614;47.576;7.524;2023-11-19T09:08:15;98706.84;;;23.11;45.04
67818;BME280;54614;47.576;7.524;2023-11-19T09:10:40;98705.81;;;23.12;45.35
67818;BME280;54614;47.576;7.524;2023-11-19T09:13:06;98708.31;;;23.14;45.07
67818;BME280;54614;47.576;7.524;2023-11-19T09:15:32;98708.69;;;23.11;45.32
67818;BME280;54614;47.576;7.524;2023-11-19T09:17:58;98709.34;;;23.13;45.62
67818;BME280;54614;47.576;7.524;2023-11-19T09:20:23;98705.81;;;23.12;45.70
67818;BME280;54614;47.576;7.524;2023-11-19T09:22:49;98712.44;;;23.17;45.47
67818;BME280;54614;47.576;7.524;2023-11-19T09:25:15;98715.31;;;23.15;45.36
67818;BME280;54614;47.576;7.524;2023-11-19T09:27:43;98714.94;;;23.18;45.22
67818;BME280;54614;47.576;7.524;2023-11-19T09:30:10;98719.47;;;23.18;45.27
67818;BME280;54614;47.576;7.524;2023-11-19T09:32:36;98727.31;;;23.19;45.42
67818;BME280;54614;47.576;7.524;2023-11-19T09:35:03;98721.94;;;23.19;45.36
67818;BME280;54614;47.576;7.524;2023-11-19T09:37:29;98724.66;;;23.26;46.04
67818;BME280;54614;47.576;7.524;2023-11-19T09:39:55;98726.91;;;23.22;45.81
67818;BME280;54614;47.576;7.524;2023-11-19T09:42:23;98720.72;;;23.22;45.54
67818;BME280;54614;47.576;7.524;2023-11-19T09:44:49;98727.13;;;23.21;45.26
67818;BME280;54614;47.576;7.524;2023-11-19T09:47:19;98734.53;;;23.19;45.42
67818;BME280;54614;47.576;7.524;2023-11-19T09:49:46;98728.56;;;23.23;45.75
67818;BME280;54614;47.576;7.524;2023-11-19T09:52:12;98717.41;;;23.20;45.98
67818;BME280;54614;47.576;7.524;2023-11-19T09:54:37;98719.69;;;23.23;46.09
67818;BME280;54614;47.576;7.524;2023-11-19T09:57:06;98720.53;;;23.23;45.90
67818;BME280;54614;47.576;7.524;2023-11-19T09:59:33;98724.88;;;23.24;45.99
67818;BME280;54614;47.576;7.524;2023-11-19T10:01:59;98727.34;;;23.26;45.99
67818;BME280;54614;47.576;7.524;2023-11-19T10:04:29;98725.69;;;23.25;45.85
67818;BME280;54614;47.576;7.524;2023-11-19T10:06:55;98724.25;;;23.22;46.79
67818;BME280;54614;47.576;7.524;2023-11-19T10:09:21;98730.03;;;23.26;45.91
67818;BME280;54614;47.576;7.524;2023-11-19T10:11:49;98731.25;;;23.23;45.72
67818;BME280;54614;47.576;7.524;2023-11-19T10:14:15;98728.78;;;23.22;46.19
67818;BME280;54614;47.576;7.524;2023-11-19T10:16:41;98727.75;;;23.23;46.09
67818;BME280;54614;47.576;7.524;2023-11-19T10:19:12;98722.38;;;23.23;45.95
67818;BME280;54614;47.576;7.524;2023-11-19T10:21:45;98734.34;;;23.20;45.96
67818;BME280;54614;47.576;7.524;2023-11-19T10:24:11;98734.13;;;23.22;45.77
67818;BME280;54614;47.576;7.524;2023-11-19T10:26:37;98728.78;;;23.22;45.84
67818;BME280;54614;47.576;7.524;2023-11-19T10:29:03;98724.03;;;23.24;46.00
67818;BME280;54614;47.576;7.524;2023-11-19T10:31:29;98720.94;;;23.20;46.11
67818;BME280;54614;47.576;7.524;2023-11-19T10:33:55;98724.06;;;23.30;45.92
67818;BME280;54614;47.576;7.524;2023-11-19T10:36:22;98712.69;;;23.28;45.90
67818;BME280;54614;47.576;7.524;2023-11-19T10:38:54;98705.88;;;23.26;45.93
67818;BME280;54614;47.576;7.524;2023-11-19T10:41:31;98713.31;;;23.24;45.97
67818;BME280;54614;47.576;7.524;2023-11-19T10:44:00;98708.97;;;23.23;45.77
67818;BME280;54614;47.576;7.524;2023-11-19T10:46:40;98706.75;;;23.33;45.82
67818;BME280;54614;47.576;7.524;2023-11-19T10:49:09;98702.38;;;23.25;46.54
67818;BME280;54614;47.576;7.524;2023-11-19T10:51:36;98699.88;;;23.24;46.49
67818;BME280;54614;47.576;7.524;2023-11-19T10:54:06;98700.09;;;23.22;46.29
67818;BME280;54614;47.576;7.524;2023-11-19T10:56:33;98687.53;;;23.29;46.20
67818;BME280;54614;47.576;7.524;2023-11-19T10:59:01;98673.91;;;23.31;46.27
67818;BME280;54614;47.576;7.524;2023-11-19T11:01:58;98677.22;;;23.33;46.22
67818;BME280;54614;47.576;7.524;2023-11-19T11:04:27;98677.41;;;23.31;46.34
67818;BME280;54614;47.576;7.524;2023-11-19T11:06:59;98670.59;;;23.29;46.21
67818;BME280;54614;47.576;7.524;2023-11-19T11:09:30;98663.19;;;23.37;50.83
67818;BME280;54614;47.576;7.524;2023-11-19T11:11:57;98673.13;;;23.43;51.65
67818;BME280;54614;47.576;7.524;2023-11-19T11:14:25;98661.16;;;23.46;50.96
67818;BME280;54614;47.576;7.524;2023-11-19T11:16:53;98667.16;;;23.48;50.37
67818;BME280;54614;47.576;7.524;2023-11-19T11:19:22;98654.75;;;23.47;49.72
67818;BME280;54614;47.576;7.524;2023-11-19T11:21:53;98664.69;;;23.53;49.60
67818;BME280;54614;47.576;7.524;2023-11-19T11:28:04;98664.50;;;23.55;49.28
67818;BME280;54614;47.576;7.524;2023-11-19T11:33:41;98663.06;;;23.59;48.28
67818;BME280;54614;47.576;7.524;2023-11-19T11:36:26;98667.22;;;23.61;47.75
67818;BME280;54614;47.576;7.524;2023-11-19T11:38:53;98664.31;;;23.63;47.98
67818;BME280;54614;47.576;7.524;2023-11-19T11:41:23;98664.31;;;23.63;47.83
67818;BME280;54614;47.576;7.524;2023-11-19T11:43:54;98658.75;;;23.64;47.70
67818;BME280;54614;47.576;7.524;2023-11-19T11:49:08;98646.97;;;23.65;47.37
67818;BME280;54614;47.576;7.524;2023-11-19T11:54:10;98631.47;;;23.67;47.41
67818;BME280;54614;47.576;7.524;2023-11-19T11:56:39;98632.09;;;23.69;47.42
67818;BME280;54614;47.576;7.524;2023-11-19T11:59:20;98624.47;;;23.66;47.47
67818;BME280;54614;47.576;7.524;2023-11-19T12:01:58;98628.78;;;23.67;47.52
67818;BME280;54614;47.576;7.524;2023-11-19T12:04:28;98622.19;;;23.70;47.85
67818;BME280;54614;47.576;7.524;2023-11-19T12:07:14;98630.03;;;23.71;48.59
67818;BME280;54614;47.576;7.524;2023-11-19T12:09:42;98623.22;;;23.69;48.20
67818;BME280;54614;47.576;7.524;2023-11-19T12:12:21;98624.88;;;23.70;49.34
67818;BME280;54614;47.576;7.524;2023-11-19T12:20:05;98624.47;;;23.73;48.88
67818;BME280;54614;47.576;7.524;2023-11-19T12:22:37;98636.88;;;23.74;48.97
67818;BME280;54614;47.576;7.524;2023-11-19T12:25:05;98628.81;;;23.74;48.88
67818;BME280;54614;47.576;7.524;2023-11-19T12:27:33;98633.16;;;23.75;48.95
67818;BME280;54614;47.576;7.524;2023-11-19T12:30:03;98627.97;;;23.73;48.93
67818;BME280;54614;47.576;7.524;2023-11-19T12:32:41;98627.97;;;23.73;48.84
67818;BME280;54614;47.576;7.524;2023-11-19T12:35:08;98622.59;;;23.73;48.97
67818;BME280;54614;47.576;7.524;2023-11-19T12:37:48;98620.75;;;23.74;48.65
67818;BME280;54614;47.576;7.524;2023-11-19T12:40:18;98607.53;;;23.72;48.31
67818;BME280;54614;47.576;7.524;2023-11-19T12:42:46;98605.88;;;23.71;48.42
67818;BME280;54614;47.576;7.524;2023-11-19T12:45:12;98608.56;;;23.71;48.18
67818;BME280;54614;47.576;7.524;2023-11-19T12:47:40;98614.34;;;23.75;48.21
67818;BME280;54614;47.576;7.524;2023-11-19T12:50:07;98609.81;;;23.75;48.09
67818;BME280;54614;47.576;7.524;2023-11-19T12:52:38;98605.88;;;23.71;47.96
67818;BME280;54614;47.576;7.524;2023-11-19T12:55:27;98602.78;;;23.68;48.00
67818;BME280;54614;47.576;7.524;2023-11-19T12:57:53;98604.22;;;23.70;47.62
67818;BME280;54614;47.576;7.524;2023-11-19T13:00:25;98605.25;;;23.69;48.23
67818;BME280;54614;47.576;7.524;2023-11-19T13:02:56;98612.28;;;23.70;47.92
67818;BME280;54614;47.576;7.524;2023-11-19T13:05:31;98613.50;;;23.68;47.81
67818;BME280;54614;47.576;7.524;2023-11-19T13:08:06;98620.13;;;23.65;47.54
67818;BME280;54614;47.576;7.524;2023-11-19T13:10:50;98610.41;;;23.64;47.20
67818;BME280;54614;47.576;7.524;2023-11-19T13:13:16;98614.13;;;23.63;47.19
67818;BME280;54614;47.576;7.524;2023-11-19T13:15:42;98617.44;;;23.65;47.09
67818;BME280;54614;47.576;7.524;2023-11-19T13:18:11;98625.28;;;23.67;47.15